sensor_id;sensor_type;location;lat;lon;timestamp;P1;durP1;ratioP1;P2;durP2;ratioP2
22904;SDS011;11619;50.140;8.518;2023-06-01T00:01:47;2.83;;;2.28;;
22904;SDS011;11619;50.140;8.518;2023-06-01T00:04:13;3.97;;;2.30;;
22904;SDS011;11619;50.140;8.518;2023-06-01T00:06:40;5.55;;;2.08;;
22904;SDS011;11619;50.140;8.518;2023-06-01T00:09:07;5.40;;;2.30;;
22904;SDS011;11619;50.140;8.518;2023-06-01T00:11:33;4.13;;;1.95;;
22904;SDS011;11619;50.140;8.518;2023-06-01T00:14:00;3.17;;;1.90;;
22904;SDS011;11619;50.140;8.518;2023-06-01T00:16:27;4.97;;;2.38;;
22904;SDS011;11619;50.140;8.518;2023-06-01T00:18:54;4.32;;;2.17;;
22904;SDS011;11619;50.140;8.518;2023-06-01T00:21:22;3.40;;;2.30;;
22904;SDS011;11619;50.140;8.518;2023-06-01T00:23:49;5.03;;;2.10;;
22904;SDS011;11619;50.140;8.518;2023-06-01T00:26:15;2.67;;;2.20;;
22904;SDS011;11619;50.140;8.518;2023-06-01T00:28:42;2.90;;;2.45;;
22904;SDS011;11619;50.140;8.518;2023-06-01T00:31:09;14.70;;;2.85;;
22904;SDS011;11619;50.140;8.518;2023-06-01T00:33:35;4.97;;;2.45;;
22904;SDS011;11619;50.140;8.518;2023-06-01T00:36:02;3.90;;;2.20;;
22904;SDS011;11619;50.140;8.518;2023-06-01T00:38:28;4.65;;;2.33;;
22904;SDS011;11619;50.140;8.518;2023-06-01T00:40:55;2.67;;;2.25;;
22904;SDS011;11619;50.140;8.518;2023-06-01T00:43:21;3.13;;;2.47;;
22904;SDS011;11619;50.140;8.518;2023-06-01T00:45:48;5.05;;;1.95;;
22904;SDS011;11619;50.140;8.518;2023-06-01T00:48:15;4.88;;;2.40;;
22904;SDS011;11619;50.140;8.518;2023-06-01T00:50:42;5.90;;;2.15;;
22904;SDS011;11619;50.140;8.518;2023-06-01T00:53:12;4.38;;;2.08;;
22904;SDS011;11619;50.140;8.518;2023-06-01T00:55:43;3.97;;;2.55;;
22904;SDS011;11619;50.140;8.518;2023-06-01T00:58:11;5.95;;;2.58;;
22904;SDS011;11619;50.140;8.518;2023-06-01T01:00:38;2.90;;;1.90;;
22904;SDS011;11619;50.140;8.518;2023-06-01T01:03:04;4.72;;;2.47;;
22904;SDS011;11619;50.140;8.518;2023-06-01T01:05:34;4.13;;;2.20;;
22904;SDS011;11619;50.140;8.518;2023-06-01T01:11:07;3.78;;;2.25;;
22904;SDS011;11619;50.140;8.518;2023-06-01T01:18:49;3.85;;;2.47;;
22904;SDS011;11619;50.140;8.518;2023-06-01T01:21:24;2.80;;;2.05;;
22904;SDS011;11619;50.140;8.518;2023-06-01T01:24:15;4.53;;;2.30;;
22904;SDS011;11619;50.140;8.518;2023-06-01T01:27:16;2.75;;;2.10;;
22904;SDS011;11619;50.140;8.518;2023-06-01T01:29:52;5.43;;;2.20;;
22904;SDS011;11619;50.140;8.518;2023-06-01T01:32:19;3.78;;;2.10;;
22904;SDS011;11619;50.140;8.518;2023-06-01T01:34:46;3.72;;;2.20;;
22904;SDS011;11619;50.140;8.518;2023-06-01T01:37:13;3.45;;;2.30;;
22904;SDS011;11619;50.140;8.518;2023-06-01T01:39:40;4.63;;;2.25;;
22904;SDS011;11619;50.140;8.518;2023-06-01T01:42:06;2.58;;;2.17;;
22904;SDS011;11619;50.140;8.518;2023-06-01T01:44:33;4.88;;;2.33;;
22904;SDS011;11619;50.140;8.518;2023-06-01T01:47:05;2.70;;;2.25;;
22904;SDS011;11619;50.140;8.518;2023-06-01T01:52:18;3.08;;;2.20;;
22904;SDS011;11619;50.140;8.518;2023-06-01T01:54:47;4.85;;;2.10;;
22904;SDS011;11619;50.140;8.518;2023-06-01T01:57:16;4.65;;;2.22;;
22904;SDS011;11619;50.140;8.518;2023-06-01T01:59:43;2.55;;;1.92;;
22904;SDS011;11619;50.140;8.518;2023-06-01T02:02:11;4.20;;;2.35;;
22904;SDS011;11619;50.140;8.518;2023-06-01T02:04:41;3.38;;;2.13;;
22904;SDS011;11619;50.140;8.518;2023-06-01T02:07:08;4.25;;;2.17;;
22904;SDS011;11619;50.140;8.518;2023-06-01T02:09:35;4.68;;;2.13;;
22904;SDS011;11619;50.140;8.518;2023-06-01T02:12:02;3.58;;;1.90;;
22904;SDS011;11619;50.140;8.518;2023-06-01T02:14:28;3.88;;;2.22;;
22904;SDS011;11619;50.140;8.518;2023-06-01T02:16:55;4.60;;;2.20;;
22904;SDS011;11619;50.140;8.518;2023-06-01T02:19:22;3.10;;;1.88;;
22904;SDS011;11619;50.140;8.518;2023-06-01T02:21:48;5.53;;;2.15;;
22904;SDS011;11619;50.140;8.518;2023-06-01T02:24:15;5.28;;;2.10;;
22904;SDS011;11619;50.140;8.518;2023-06-01T02:26:41;7.50;;;2.42;;
22904;SDS011;11619;50.140;8.518;2023-06-01T02:29:08;4.80;;;2.28;;
22904;SDS011;11619;50.140;8.518;2023-06-01T02:31:35;3.88;;;2.30;;
22904;SDS011;11619;50.140;8.518;2023-06-01T02:34:02;3.47;;;2.13;;
22904;SDS011;11619;50.140;8.518;2023-06-01T02:36:28;5.55;;;2.42;;
22904;SDS011;11619;50.140;8.518;2023-06-01T02:38:55;3.75;;;2.28;;
22904;SDS011;11619;50.140;8.518;2023-06-01T02:41:22;5.72;;;2.25;;
22904;SDS011;11619;50.140;8.518;2023-06-01T02:43:49;5.32;;;2.53;;
22904;SDS011;11619;50.140;8.518;2023-06-01T02:46:18;7.80;;;2.28;;
22904;SDS011;11619;50.140;8.518;2023-06-01T02:48:45;3.72;;;2.60;;
22904;SDS011;11619;50.140;8.518;2023-06-01T02:51:12;3.55;;;2.47;;
22904;SDS011;11619;50.140;8.518;2023-06-01T02:53:39;2.92;;;2.00;;
22904;SDS011;11619;50.140;8.518;2023-06-01T02:56:06;3.60;;;2.58;;
22904;SDS011;11619;50.140;8.518;2023-06-01T02:58:32;4.25;;;2.20;;
22904;SDS011;11619;50.140;8.518;2023-06-01T03:00:59;6.82;;;2.40;;
22904;SDS011;11619;50.140;8.518;2023-06-01T03:03:27;4.20;;;2.20;;
22904;SDS011;11619;50.140;8.518;2023-06-01T03:05:54;4.13;;;2.42;;
22904;SDS011;11619;50.140;8.518;2023-06-01T03:08:22;4.00;;;2.17;;
22904;SDS011;11619;50.140;8.518;2023-06-01T03:10:52;3.60;;;2.42;;
22904;SDS011;11619;50.140;8.518;2023-06-01T03:13:19;3.65;;;2.22;;
22904;SDS011;11619;50.140;8.518;2023-06-01T03:15:45;4.05;;;2.08;;
22904;SDS011;11619;50.140;8.518;2023-06-01T03:18:12;3.22;;;2.38;;
22904;SDS011;11619;50.140;8.518;2023-06-01T03:20:39;6.20;;;2.80;;
22904;SDS011;11619;50.140;8.518;2023-06-01T03:23:05;3.25;;;1.90;;
22904;SDS011;11619;50.140;8.518;2023-06-01T03:25:32;5.35;;;2.70;;
22904;SDS011;11619;50.140;8.518;2023-06-01T03:27:59;4.22;;;2.55;;
22904;SDS011;11619;50.140;8.518;2023-06-01T03:30:26;3.60;;;2.03;;
22904;SDS011;11619;50.140;8.518;2023-06-01T03:32:52;5.32;;;2.53;;
22904;SDS011;11619;50.140;8.518;2023-06-01T03:35:19;5.88;;;2.13;;
22904;SDS011;11619;50.140;8.518;2023-06-01T03:37:45;4.72;;;2.30;;
22904;SDS011;11619;50.140;8.518;2023-06-01T03:40:12;5.13;;;2.38;;
22904;SDS011;11619;50.140;8.518;2023-06-01T03:42:44;4.25;;;2.22;;
22904;SDS011;11619;50.140;8.518;2023-06-01T03:45:13;3.92;;;2.30;;
22904;SDS011;11619;50.140;8.518;2023-06-01T03:47:40;5.40;;;2.20;;
22904;SDS011;11619;50.140;8.518;2023-06-01T03:50:07;5.25;;;2.10;;
22904;SDS011;11619;50.140;8.518;2023-06-01T03:52:34;3.13;;;2.08;;
22904;SDS011;11619;50.140;8.518;2023-06-01T03:55:02;5.45;;;2.45;;
22904;SDS011;11619;50.140;8.518;2023-06-01T03:57:37;4.18;;;2.58;;
22904;SDS011;11619;50.140;8.518;2023-06-01T04:00:04;2.45;;;2.10;;
22904;SDS011;11619;50.140;8.518;2023-06-01T04:02:47;3.33;;;2.17;;
22904;SDS011;11619;50.140;8.518;2023-06-01T04:05:15;4.35;;;2.30;;
22904;SDS011;11619;50.140;8.518;2023-06-01T04:07:50;3.33;;;2.65;;
22904;SDS011;11619;50.140;8.518;2023-06-01T04:10:18;4.07;;;2.20;;
22904;SDS011;11619;50.140;8.518;2023-06-01T04:12:46;3.53;;;2.25;;
22904;SDS011;11619;50.140;8.518;2023-06-01T04:15:14;6.90;;;2.30;;
22904;SDS011;11619;50.140;8.518;2023-06-01T04:17:42;4.70;;;2.17;;
22904;SDS011;11619;50.140;8.518;2023-06-01T04:20:10;3.15;;;2.05;;
22904;SDS011;11619;50.140;8.518;2023-06-01T04:22:37;3.15;;;2.38;;
22904;SDS011;11619;50.140;8.518;2023-06-01T04:25:08;3.40;;;2.13;;
22904;SDS011;11619;50.140;8.518;2023-06-01T04:27:41;4.95;;;2.40;;
22904;SDS011;11619;50.140;8.518;2023-06-01T04:30:11;5.25;;;2.20;;
22904;SDS011;11619;50.140;8.518;2023-06-01T04:32:39;5.05;;;2.15;;
22904;SDS011;11619;50.140;8.518;2023-06-01T04:35:06;3.58;;;2.10;;
22904;SDS011;11619;50.140;8.518;2023-06-01T04:37:33;3.75;;;2.40;;
22904;SDS011;11619;50.140;8.518;2023-06-01T04:40:01;2.50;;;2.25;;
22904;SDS011;11619;50.140;8.518;2023-06-01T04:42:36;3.33;;;2.33;;
22904;SDS011;11619;50.140;8.518;2023-06-01T04:45:21;5.43;;;2.60;;
22904;SDS011;11619;50.140;8.518;2023-06-01T04:47:49;3.17;;;2.13;;
22904;SDS011;11619;50.140;8.518;2023-06-01T04:50:16;3.22;;;2.70;;
22904;SDS011;11619;50.140;8.518;2023-06-01T04:52:43;4.15;;;2.45;;
22904;SDS011;11619;50.140;8.518;2023-06-01T04:55:10;3.88;;;2.30;;
22904;SDS011;11619;50.140;8.518;2023-06-01T04:57:39;3.72;;;2.53;;
22904;SDS011;11619;50.140;8.518;2023-06-01T05:00:09;5.82;;;2.50;;
22904;SDS011;11619;50.140;8.518;2023-06-01T05:02:40;3.08;;;2.17;;
22904;SDS011;11619;50.140;8.518;2023-06-01T05:05:10;3.08;;;2.25;;
22904;SDS011;11619;50.140;8.518;2023-06-01T05:07:37;4.38;;;2.35;;
22904;SDS011;11619;50.140;8.518;2023-06-01T05:10:03;4.15;;;2.42;;
22904;SDS011;11619;50.140;8.518;2023-06-01T05:12:32;5.97;;;2.35;;
22904;SDS011;11619;50.140;8.518;2023-06-01T05:14:59;6.00;;;2.95;;
22904;SDS011;11619;50.140;8.518;2023-06-01T05:17:27;3.42;;;2.10;;
22904;SDS011;11619;50.140;8.518;2023-06-01T05:19:53;3.72;;;2.40;;
22904;SDS011;11619;50.140;8.518;2023-06-01T05:22:20;5.82;;;2.63;;
22904;SDS011;11619;50.140;8.518;2023-06-01T05:24:46;3.45;;;2.67;;
22904;SDS011;11619;50.140;8.518;2023-06-01T05:27:12;3.83;;;2.53;;
22904;SDS011;11619;50.140;8.518;2023-06-01T05:29:39;4.15;;;2.58;;
22904;SDS011;11619;50.140;8.518;2023-06-01T05:32:06;3.58;;;2.15;;
22904;SDS011;11619;50.140;8.518;2023-06-01T05:34:33;4.68;;;2.53;;
22904;SDS011;11619;50.140;8.518;2023-06-01T05:37:00;7.60;;;2.03;;
22904;SDS011;11619;50.140;8.518;2023-06-01T05:39:27;5.72;;;2.20;;
22904;SDS011;11619;50.140;8.518;2023-06-01T05:41:54;3.95;;;2.70;;
22904;SDS011;11619;50.140;8.518;2023-06-01T05:44:21;5.85;;;2.35;;
22904;SDS011;11619;50.140;8.518;2023-06-01T05:46:48;4.63;;;1.90;;
22904;SDS011;11619;50.140;8.518;2023-06-01T05:49:15;5.50;;;2.58;;
22904;SDS011;11619;50.140;8.518;2023-06-01T05:51:41;3.40;;;2.03;;
22904;SDS011;11619;50.140;8.518;2023-06-01T05:54:09;4.90;;;1.70;;
22904;SDS011;11619;50.140;8.518;2023-06-01T05:56:36;4.40;;;1.98;;
22904;SDS011;11619;50.140;8.518;2023-06-01T05:59:03;4.35;;;2.25;;
22904;SDS011;11619;50.140;8.518;2023-06-01T06:01:29;3.30;;;2.15;;
22904;SDS011;11619;50.140;8.518;2023-06-01T06:03:56;3.20;;;2.17;;
22904;SDS011;11619;50.140;8.518;2023-06-01T06:06:23;5.25;;;2.10;;
22904;SDS011;11619;50.140;8.518;2023-06-01T06:08:51;4.88;;;2.15;;
22904;SDS011;11619;50.140;8.518;2023-06-01T06:11:17;9.75;;;2.50;;
22904;SDS011;11619;50.140;8.518;2023-06-01T06:13:44;3.35;;;2.00;;
22904;SDS011;11619;50.140;8.518;2023-06-01T06:16:11;4.90;;;2.20;;
22904;SDS011;11619;50.140;8.518;2023-06-01T06:18:37;5.88;;;2.65;;
22904;SDS011;11619;50.140;8.518;2023-06-01T06:21:04;2.20;;;1.85;;
22904;SDS011;11619;50.140;8.518;2023-06-01T06:23:31;3.95;;;1.88;;
22904;SDS011;11619;50.140;8.518;2023-06-01T06:25:58;3.53;;;2.08;;
22904;SDS011;11619;50.140;8.518;2023-06-01T06:28:25;6.38;;;2.38;;
22904;SDS011;11619;50.140;8.518;2023-06-01T06:30:52;2.97;;;2.00;;
22904;SDS011;11619;50.140;8.518;2023-06-01T06:33:19;4.97;;;2.40;;
22904;SDS011;11619;50.140;8.518;2023-06-01T06:35:45;5.22;;;2.60;;
22904;SDS011;11619;50.140;8.518;2023-06-01T06:38:12;8.43;;;2.65;;
22904;SDS011;11619;50.140;8.518;2023-06-01T06:40:39;4.40;;;2.08;;
22904;SDS011;11619;50.140;8.518;2023-06-01T06:43:05;3.90;;;2.53;;
22904;SDS011;11619;50.140;8.518;2023-06-01T06:45:32;2.70;;;2.05;;
22904;SDS011;11619;50.140;8.518;2023-06-01T06:47:59;5.43;;;2.22;;
22904;SDS011;11619;50.140;8.518;2023-06-01T06:50:26;4.93;;;2.22;;
22904;SDS011;11619;50.140;8.518;2023-06-01T06:52:52;7.60;;;2.33;;
22904;SDS011;11619;50.140;8.518;2023-06-01T06:55:19;6.18;;;2.22;;
22904;SDS011;11619;50.140;8.518;2023-06-01T06:57:46;5.63;;;2.63;;
22904;SDS011;11619;50.140;8.518;2023-06-01T07:00:13;6.50;;;2.85;;
22904;SDS011;11619;50.140;8.518;2023-06-01T07:02:41;3.33;;;2.65;;
22904;SDS011;11619;50.140;8.518;2023-06-01T07:05:11;4.68;;;2.75;;
22904;SDS011;11619;50.140;8.518;2023-06-01T07:07:38;7.47;;;2.70;;
22904;SDS011;11619;50.140;8.518;2023-06-01T07:10:06;8.65;;;2.88;;
22904;SDS011;11619;50.140;8.518;2023-06-01T07:12:33;5.53;;;2.53;;
22904;SDS011;11619;50.140;8.518;2023-06-01T07:15:01;4.22;;;2.80;;
22904;SDS011;11619;50.140;8.518;2023-06-01T07:17:27;5.38;;;2.22;;
22904;SDS011;11619;50.140;8.518;2023-06-01T07:19:54;3.90;;;2.38;;
22904;SDS011;11619;50.140;8.518;2023-06-01T07:22:20;6.00;;;2.65;;
22904;SDS011;11619;50.140;8.518;2023-06-01T07:24:47;4.10;;;2.30;;
22904;SDS011;11619;50.140;8.518;2023-06-01T07:27:14;5.25;;;2.13;;
22904;SDS011;11619;50.140;8.518;2023-06-01T07:29:40;4.22;;;2.20;;
22904;SDS011;11619;50.140;8.518;2023-06-01T07:32:07;5.05;;;2.50;;
22904;SDS011;11619;50.140;8.518;2023-06-01T07:34:34;5.78;;;2.53;;
22904;SDS011;11619;50.140;8.518;2023-06-01T07:37:00;6.97;;;2.40;;
22904;SDS011;11619;50.140;8.518;2023-06-01T07:39:41;4.53;;;2.13;;
22904;SDS011;11619;50.140;8.518;2023-06-01T07:42:08;4.60;;;2.10;;
22904;SDS011;11619;50.140;8.518;2023-06-01T07:44:34;3.85;;;2.13;;
22904;SDS011;11619;50.140;8.518;2023-06-01T07:47:01;5.10;;;2.72;;
22904;SDS011;11619;50.140;8.518;2023-06-01T07:49:27;3.50;;;2.08;;
22904;SDS011;11619;50.140;8.518;2023-06-01T07:51:55;5.65;;;2.20;;
22904;SDS011;11619;50.140;8.518;2023-06-01T07:54:22;2.63;;;2.05;;
22904;SDS011;11619;50.140;8.518;2023-06-01T07:56:49;2.83;;;2.00;;
22904;SDS011;11619;50.140;8.518;2023-06-01T07:59:16;5.43;;;2.17;;
22904;SDS011;11619;50.140;8.518;2023-06-01T08:01:42;6.13;;;2.00;;
22904;SDS011;11619;50.140;8.518;2023-06-01T08:04:09;4.57;;;2.00;;
22904;SDS011;11619;50.140;8.518;2023-06-01T08:06:37;4.38;;;2.10;;
22904;SDS011;11619;50.140;8.518;2023-06-01T08:09:04;5.38;;;2.50;;
22904;SDS011;11619;50.140;8.518;2023-06-01T08:11:31;6.05;;;1.73;;
22904;SDS011;11619;50.140;8.518;2023-06-01T08:13:58;2.85;;;2.03;;
22904;SDS011;11619;50.140;8.518;2023-06-01T08:16:26;5.30;;;2.20;;
22904;SDS011;11619;50.140;8.518;2023-06-01T08:18:53;5.80;;;2.20;;
22904;SDS011;11619;50.140;8.518;2023-06-01T08:21:19;3.17;;;1.70;;
22904;SDS011;11619;50.140;8.518;2023-06-01T08:23:46;4.72;;;2.03;;
22904;SDS011;11619;50.140;8.518;2023-06-01T08:26:13;2.80;;;2.08;;
22904;SDS011;11619;50.140;8.518;2023-06-01T08:28:40;5.90;;;2.53;;
22904;SDS011;11619;50.140;8.518;2023-06-01T08:31:06;2.28;;;2.05;;
22904;SDS011;11619;50.140;8.518;2023-06-01T08:33:34;4.45;;;2.28;;
22904;SDS011;11619;50.140;8.518;2023-06-01T08:36:01;5.60;;;1.83;;
22904;SDS011;11619;50.140;8.518;2023-06-01T08:38:28;3.05;;;1.90;;
22904;SDS011;11619;50.140;8.518;2023-06-01T08:40:58;5.78;;;2.10;;
22904;SDS011;11619;50.140;8.518;2023-06-01T08:43:29;4.10;;;2.53;;
22904;SDS011;11619;50.140;8.518;2023-06-01T08:45:57;5.10;;;2.08;;
22904;SDS011;11619;50.140;8.518;2023-06-01T08:48:24;2.22;;;2.00;;
22904;SDS011;11619;50.140;8.518;2023-06-01T08:50:51;3.08;;;1.83;;
22904;SDS011;11619;50.140;8.518;2023-06-01T08:53:20;7.47;;;2.10;;
22904;SDS011;11619;50.140;8.518;2023-06-01T08:55:51;3.40;;;2.45;;
22904;SDS011;11619;50.140;8.518;2023-06-01T08:58:18;5.93;;;2.20;;
22904;SDS011;11619;50.140;8.518;2023-06-01T09:00:48;7.63;;;2.00;;
22904;SDS011;11619;50.140;8.518;2023-06-01T09:03:15;5.30;;;2.08;;
22904;SDS011;11619;50.140;8.518;2023-06-01T09:05:42;4.60;;;2.45;;
22904;SDS011;11619;50.140;8.518;2023-06-01T09:08:09;3.85;;;2.00;;
22904;SDS011;11619;50.140;8.518;2023-06-01T09:10:36;4.82;;;2.22;;
22904;SDS011;11619;50.140;8.518;2023-06-01T09:13:02;2.65;;;1.85;;
22904;SDS011;11619;50.140;8.518;2023-06-01T09:15:29;5.38;;;2.47;;
22904;SDS011;11619;50.140;8.518;2023-06-01T09:18:06;4.25;;;2.40;;
22904;SDS011;11619;50.140;8.518;2023-06-01T09:20:34;7.82;;;2.60;;
22904;SDS011;11619;50.140;8.518;2023-06-01T09:23:03;5.45;;;2.30;;
22904;SDS011;11619;50.140;8.518;2023-06-01T09:25:30;2.72;;;2.10;;
22904;SDS011;11619;50.140;8.518;2023-06-01T09:27:58;4.82;;;2.17;;
22904;SDS011;11619;50.140;8.518;2023-06-01T09:30:36;3.53;;;2.22;;
22904;SDS011;11619;50.140;8.518;2023-06-01T09:33:11;5.63;;;2.10;;
22904;SDS011;11619;50.140;8.518;2023-06-01T09:38:09;3.67;;;2.20;;
22904;SDS011;11619;50.140;8.518;2023-06-01T09:40:37;2.85;;;1.85;;
22904;SDS011;11619;50.140;8.518;2023-06-01T09:43:20;3.53;;;1.90;;
22904;SDS011;11619;50.140;8.518;2023-06-01T09:46:03;4.00;;;2.05;;
22904;SDS011;11619;50.140;8.518;2023-06-01T09:48:34;3.88;;;1.80;;
22904;SDS011;11619;50.140;8.518;2023-06-01T09:51:00;1.85;;;1.58;;
22904;SDS011;11619;50.140;8.518;2023-06-01T09:53:28;2.35;;;1.80;;
22904;SDS011;11619;50.140;8.518;2023-06-01T09:56:08;6.97;;;2.22;;
22904;SDS011;11619;50.140;8.518;2023-06-01T09:58:34;2.17;;;1.98;;
22904;SDS011;11619;50.140;8.518;2023-06-01T10:01:05;3.88;;;1.83;;
22904;SDS011;11619;50.140;8.518;2023-06-01T10:03:34;4.40;;;2.20;;
22904;SDS011;11619;50.140;8.518;2023-06-01T10:06:01;4.03;;;1.92;;
22904;SDS011;11619;50.140;8.518;2023-06-01T10:08:29;3.53;;;1.80;;
22904;SDS011;11619;50.140;8.518;2023-06-01T10:10:56;3.90;;;1.92;;
22904;SDS011;11619;50.140;8.518;2023-06-01T10:13:23;3.22;;;2.00;;
22904;SDS011;11619;50.140;8.518;2023-06-01T10:15:53;3.85;;;2.00;;
22904;SDS011;11619;50.140;8.518;2023-06-01T10:18:20;2.40;;;2.00;;
22904;SDS011;11619;50.140;8.518;2023-06-01T10:20:47;3.28;;;2.28;;
22904;SDS011;11619;50.140;8.518;2023-06-01T10:23:14;2.22;;;1.75;;
22904;SDS011;11619;50.140;8.518;2023-06-01T10:25:55;4.85;;;2.08;;
22904;SDS011;11619;50.140;8.518;2023-06-01T10:28:23;3.85;;;1.83;;
22904;SDS011;11619;50.140;8.518;2023-06-01T10:33:56;4.10;;;1.67;;
22904;SDS011;11619;50.140;8.518;2023-06-01T10:36:24;3.63;;;2.15;;
22904;SDS011;11619;50.140;8.518;2023-06-01T10:47:06;5.10;;;2.10;;
22904;SDS011;11619;50.140;8.518;2023-06-01T10:52:27;3.95;;;1.90;;
22904;SDS011;11619;50.140;8.518;2023-06-01T11:00:15;5.20;;;2.30;;
22904;SDS011;11619;50.140;8.518;2023-06-01T11:08:05;2.85;;;1.83;;
22904;SDS011;11619;50.140;8.518;2023-06-01T11:13:20;8.40;;;2.30;;
22904;SDS011;11619;50.140;8.518;2023-06-01T11:21:19;3.17;;;2.05;;
22904;SDS011;11619;50.140;8.518;2023-06-01T11:23:48;3.13;;;1.90;;
22904;SDS011;11619;50.140;8.518;2023-06-01T11:26:15;6.78;;;1.85;;
22904;SDS011;11619;50.140;8.518;2023-06-01T11:28:44;3.97;;;2.42;;
22904;SDS011;11619;50.140;8.518;2023-06-01T11:31:14;4.40;;;2.00;;
22904;SDS011;11619;50.140;8.518;2023-06-01T11:33:46;4.10;;;1.83;;
22904;SDS011;11619;50.140;8.518;2023-06-01T11:36:19;3.53;;;2.10;;
22904;SDS011;11619;50.140;8.518;2023-06-01T11:38:50;3.17;;;2.17;;
22904;SDS011;11619;50.140;8.518;2023-06-01T11:41:18;4.47;;;2.20;;
22904;SDS011;11619;50.140;8.518;2023-06-01T11:43:53;4.53;;;2.33;;
22904;SDS011;11619;50.140;8.518;2023-06-01T11:46:21;5.05;;;2.30;;
22904;SDS011;11619;50.140;8.518;2023-06-01T11:48:58;3.53;;;2.58;;
22904;SDS011;11619;50.140;8.518;2023-06-01T11:51:40;4.05;;;2.10;;
22904;SDS011;11619;50.140;8.518;2023-06-01T11:54:08;3.75;;;1.83;;
22904;SDS011;11619;50.140;8.518;2023-06-01T11:56:35;4.03;;;2.22;;
22904;SDS011;11619;50.140;8.518;2023-06-01T11:59:05;3.17;;;1.90;;
22904;SDS011;11619;50.140;8.518;2023-06-01T12:01:35;5.13;;;2.20;;
22904;SDS011;11619;50.140;8.518;2023-06-01T12:04:03;3.20;;;1.80;;
22904;SDS011;11619;50.140;8.518;2023-06-01T12:06:30;3.70;;;2.10;;
22904;SDS011;11619;50.140;8.518;2023-06-01T12:08:57;2.30;;;1.98;;
22904;SDS011;11619;50.140;8.518;2023-06-01T12:11:24;3.97;;;2.25;;
22904;SDS011;11619;50.140;8.518;2023-06-01T12:13:55;4.32;;;2.30;;
22904;SDS011;11619;50.140;8.518;2023-06-01T12:16:22;3.22;;;2.03;;
22904;SDS011;11619;50.140;8.518;2023-06-01T12:18:49;4.30;;;2.58;;
22904;SDS011;11619;50.140;8.518;2023-06-01T12:21:15;2.17;;;1.98;;
22904;SDS011;11619;50.140;8.518;2023-06-01T12:23:50;5.55;;;2.28;;
22904;SDS011;11619;50.140;8.518;2023-06-01T12:26:20;5.53;;;1.73;;
22904;SDS011;11619;50.140;8.518;2023-06-01T12:28:47;6.07;;;2.20;;
22904;SDS011;11619;50.140;8.518;2023-06-01T12:31:14;3.83;;;1.80;;
22904;SDS011;11619;50.140;8.518;2023-06-01T12:33:42;4.35;;;2.38;;
22904;SDS011;11619;50.140;8.518;2023-06-01T12:36:11;3.08;;;1.92;;
22904;SDS011;11619;50.140;8.518;2023-06-01T12:38:54;3.13;;;2.03;;
22904;SDS011;11619;50.140;8.518;2023-06-01T12:41:24;5.22;;;2.20;;
22904;SDS011;11619;50.140;8.518;2023-06-01T12:43:51;3.88;;;2.00;;
22904;SDS011;11619;50.140;8.518;2023-06-01T12:46:19;4.47;;;1.73;;
22904;SDS011;11619;50.140;8.518;2023-06-01T12:48:53;2.92;;;1.92;;
22904;SDS011;11619;50.140;8.518;2023-06-01T12:51:21;3.10;;;1.95;;
22904;SDS011;11619;50.140;8.518;2023-06-01T12:53:47;3.67;;;2.00;;
22904;SDS011;11619;50.140;8.518;2023-06-01T12:56:14;6.88;;;1.98;;
22904;SDS011;11619;50.140;8.518;2023-06-01T12:58:41;2.28;;;2.00;;
22904;SDS011;11619;50.140;8.518;2023-06-01T13:01:08;3.17;;;2.05;;
22904;SDS011;11619;50.140;8.518;2023-06-01T13:03:34;6.47;;;2.63;;
22904;SDS011;11619;50.140;8.518;2023-06-01T13:06:01;4.85;;;2.05;;
22904;SDS011;11619;50.140;8.518;2023-06-01T13:08:28;3.40;;;1.92;;
22904;SDS011;11619;50.140;8.518;2023-06-01T13:10:54;3.95;;;2.53;;
22904;SDS011;11619;50.140;8.518;2023-06-01T13:13:20;4.28;;;2.33;;
22904;SDS011;11619;50.140;8.518;2023-06-01T13:15:47;4.65;;;2.08;;
22904;SDS011;11619;50.140;8.518;2023-06-01T13:18:14;6.22;;;2.00;;
22904;SDS011;11619;50.140;8.518;2023-06-01T13:20:40;3.67;;;2.20;;
22904;SDS011;11619;50.140;8.518;2023-06-01T13:23:07;3.83;;;2.35;;
22904;SDS011;11619;50.140;8.518;2023-06-01T13:25:34;3.42;;;2.40;;
22904;SDS011;11619;50.140;8.518;2023-06-01T13:28:01;2.50;;;1.90;;
22904;SDS011;11619;50.140;8.518;2023-06-01T13:30:28;2.42;;;1.90;;
22904;SDS011;11619;50.140;8.518;2023-06-01T13:32:55;4.53;;;2.00;;
22904;SDS011;11619;50.140;8.518;2023-06-01T13:35:22;2.78;;;2.22;;
22904;SDS011;11619;50.140;8.518;2023-06-01T13:37:49;3.35;;;2.00;;
22904;SDS011;11619;50.140;8.518;2023-06-01T13:40:15;7.03;;;2.40;;
22904;SDS011;11619;50.140;8.518;2023-06-01T13:42:49;6.18;;;2.45;;
22904;SDS011;11619;50.140;8.518;2023-06-01T13:45:16;3.15;;;2.30;;
22904;SDS011;11619;50.140;8.518;2023-06-01T13:47:43;3.50;;;2.15;;
22904;SDS011;11619;50.140;8.518;2023-06-01T13:50:12;5.40;;;1.80;;
22904;SDS011;11619;50.140;8.518;2023-06-01T13:52:39;5.45;;;1.83;;
22904;SDS011;11619;50.140;8.518;2023-06-01T13:55:06;3.63;;;2.03;;
22904;SDS011;11619;50.140;8.518;2023-06-01T13:57:36;6.25;;;1.83;;
22904;SDS011;11619;50.140;8.518;2023-06-01T14:00:04;3.30;;;2.17;;
22904;SDS011;11619;50.140;8.518;2023-06-01T14:02:32;3.97;;;2.15;;
22904;SDS011;11619;50.140;8.518;2023-06-01T14:04:58;2.80;;;2.00;;
22904;SDS011;11619;50.140;8.518;2023-06-01T14:09:58;5.22;;;2.28;;
22904;SDS011;11619;50.140;8.518;2023-06-01T14:12:25;4.03;;;2.60;;
22904;SDS011;11619;50.140;8.518;2023-06-01T14:14:52;5.25;;;2.50;;
22904;SDS011;11619;50.140;8.518;2023-06-01T14:17:18;4.68;;;2.45;;
22904;SDS011;11619;50.140;8.518;2023-06-01T14:19:45;3.70;;;2.53;;
22904;SDS011;11619;50.140;8.518;2023-06-01T14:22:11;4.07;;;2.33;;
22904;SDS011;11619;50.140;8.518;2023-06-01T14:24:38;3.53;;;2.30;;
22904;SDS011;11619;50.140;8.518;2023-06-01T14:27:05;4.75;;;2.65;;
22904;SDS011;11619;50.140;8.518;2023-06-01T14:29:32;6.95;;;2.67;;
22904;SDS011;11619;50.140;8.518;2023-06-01T14:31:59;3.72;;;2.33;;
22904;SDS011;11619;50.140;8.518;2023-06-01T14:34:25;5.68;;;3.03;;
22904;SDS011;11619;50.140;8.518;2023-06-01T14:36:52;5.50;;;2.55;;
22904;SDS011;11619;50.140;8.518;2023-06-01T14:39:18;3.42;;;2.25;;
22904;SDS011;11619;50.140;8.518;2023-06-01T14:41:44;5.15;;;2.53;;
22904;SDS011;11619;50.140;8.518;2023-06-01T14:44:11;4.97;;;2.30;;
22904;SDS011;11619;50.140;8.518;2023-06-01T14:46:38;8.73;;;2.60;;
22904;SDS011;11619;50.140;8.518;2023-06-01T14:49:07;4.50;;;2.70;;
22904;SDS011;11619;50.140;8.518;2023-06-01T14:51:34;3.97;;;2.38;;
22904;SDS011;11619;50.140;8.518;2023-06-01T14:54:00;3.58;;;2.15;;
22904;SDS011;11619;50.140;8.518;2023-06-01T14:56:27;3.58;;;2.13;;
22904;SDS011;11619;50.140;8.518;2023-06-01T14:58:53;7.68;;;2.47;;
22904;SDS011;11619;50.140;8.518;2023-06-01T15:01:20;2.78;;;2.10;;
22904;SDS011;11619;50.140;8.518;2023-06-01T15:03:46;6.90;;;2.70;;
22904;SDS011;11619;50.140;8.518;2023-06-01T15:06:13;4.82;;;2.80;;
22904;SDS011;11619;50.140;8.518;2023-06-01T15:08:40;4.90;;;2.50;;
22904;SDS011;11619;50.140;8.518;2023-06-01T15:11:06;7.55;;;3.10;;
22904;SDS011;11619;50.140;8.518;2023-06-01T15:13:33;3.30;;;2.70;;
22904;SDS011;11619;50.140;8.518;2023-06-01T15:15:59;4.35;;;2.53;;
22904;SDS011;11619;50.140;8.518;2023-06-01T15:18:25;5.45;;;3.28;;
22904;SDS011;11619;50.140;8.518;2023-06-01T15:20:52;3.25;;;2.70;;
22904;SDS011;11619;50.140;8.518;2023-06-01T15:23:19;3.60;;;3.30;;
22904;SDS011;11619;50.140;8.518;2023-06-01T15:25:46;10.10;;;3.40;;
22904;SDS011;11619;50.140;8.518;2023-06-01T15:28:12;4.28;;;3.70;;
22904;SDS011;11619;50.140;8.518;2023-06-01T15:30:39;6.32;;;4.20;;
22904;SDS011;11619;50.140;8.518;2023-06-01T15:33:05;8.45;;;5.07;;
22904;SDS011;11619;50.140;8.518;2023-06-01T15:35:34;5.57;;;4.70;;
22904;SDS011;11619;50.140;8.518;2023-06-01T15:38:01;6.88;;;5.30;;
22904;SDS011;11619;50.140;8.518;2023-06-01T15:40:27;8.15;;;4.78;;
22904;SDS011;11619;50.140;8.518;2023-06-01T15:42:54;9.05;;;5.00;;